Time;durP1;ratioP1;P1;durP2;ratioP2;P2;SDS_P1;SDS_P2;PMS_P1;PMS_P2;Temp;Humidity;BMP_temperature;BMP_pressure;BME280_temperature;BME280_humidity;BME280_pressure;Samples;Min_cycle;Max_cycle;Signal;HPM_P1;HPM_P2
2023/03/28 00:02:25;;;;;;;4.30;1.30;;;4.10;1.00;;;;;;5063063;28;20563;-54
2023/03/28 00:04:51;;;;;;;3.73;1.70;;;4.10;1.00;;;;;;5064876;28;20184;-53
2023/03/28 00:07:17;;;;;;;3.23;1.20;;;4.10;1.00;;;;;;5062297;28;20646;-53
2023/03/28 00:09:43;;;;;;;1.77;1.37;;;4.20;1.00;;;;;;5068017;28;20458;-54
2023/03/28 00:12:09;;;;;;;3.70;1.43;;;4.20;1.00;;;;;;5061430;28;20816;-56
2023/03/28 00:14:35;;;;;;;4.00;1.30;;;4.20;1.00;;;;;;5062161;28;20450;-54
2023/03/28 00:17:00;;;;;;;1.80;1.10;;;4.20;1.00;;;;;;5066564;28;20180;-53
2023/03/28 00:19:31;;;;;;;2.73;1.40;;;4.20;1.00;;;;;;5061869;28;20515;-54
2023/03/28 00:21:58;;;;;;;8.43;1.70;;;4.30;1.00;;;;;;5064486;28;20603;-55
2023/03/28 00:24:24;;;;;;;1.80;1.07;;;4.40;1.00;;;;;;5061976;28;20529;-56
2023/03/28 00:26:53;;;;;;;4.10;1.20;;;4.30;1.00;;;;;;5063829;28;20484;-55
2023/03/28 00:29:19;;;;;;;2.20;1.20;;;4.20;1.00;;;;;;5063173;28;20448;-53
2023/03/28 00:31:47;;;;;;;4.43;1.60;;;4.20;1.00;;;;;;5059473;28;20446;-54
2023/03/28 00:34:14;;;;;;;1.27;0.90;;;4.30;1.00;;;;;;5063960;28;20450;-54
2023/03/28 00:36:40;;;;;;;2.53;1.57;;;4.10;1.00;;;;;;5066950;28;20478;-56
2023/03/28 00:39:10;;;;;;;3.17;0.90;;;4.20;1.00;;;;;;5061280;28;20493;-55
2023/03/28 00:41:40;;;;;;;2.80;1.30;;;4.20;1.00;;;;;;5061162;28;20180;-55
2023/03/28 00:44:43;;;;;;;2.53;1.37;;;4.20;1.00;;;;;;5060356;28;21013;-54
2023/03/28 00:47:20;;;;;;;4.03;1.60;;;4.30;1.00;;;;;;5063028;28;20457;-55
2023/03/28 00:49:51;;;;;;;3.97;1.83;;;4.20;1.00;;;;;;5064643;28;20449;-54
2023/03/28 00:52:20;;;;;;;3.07;1.07;;;4.30;1.00;;;;;;5068157;28;20450;-55
2023/03/28 00:54:47;;;;;;;5.73;1.40;;;4.20;1.00;;;;;;5084789;28;20517;-57
2023/03/28 00:57:15;;;;;;;3.70;1.10;;;4.30;1.00;;;;;;5068233;28;20457;-54
2023/03/28 00:59:42;;;;;;;1.60;1.30;;;4.20;1.00;;;;;;5076149;28;20471;-54
2023/03/28 01:02:09;;;;;;;3.13;1.30;;;4.20;1.00;;;;;;5070002;28;20487;-54
2023/03/28 01:04:45;;;;;;;3.27;1.40;;;4.20;1.00;;;;;;5069152;28;20436;-55
2023/03/28 01:07:11;;;;;;;1.80;1.40;;;4.30;1.00;;;;;;5067510;28;20453;-55
2023/03/28 01:09:36;;;;;;;3.40;1.60;;;4.30;1.00;;;;;;5066192;28;20464;-54
2023/03/28 01:12:03;;;;;;;8.47;1.33;;;4.30;1.00;;;;;;5067161;28;20453;-56
2023/03/28 01:14:29;;;;;;;1.50;0.83;;;4.30;1.00;;;;;;5064726;28;20246;-55
2023/03/28 01:16:56;;;;;;;2.40;1.10;;;4.20;1.00;;;;;;5067524;28;20553;-53
2023/03/28 01:19:57;;;;;;;4.93;1.60;;;4.30;1.00;;;;;;5069989;28;20461;-56
2023/03/28 01:22:44;;;;;;;3.73;1.50;;;4.30;1.00;;;;;;5041303;28;20459;-54
2023/03/28 01:25:35;;;;;;;3.80;1.57;;;4.20;1.00;;;;;;5067594;28;21002;-52
2023/03/28 01:28:18;;;;;;;4.23;1.50;;;4.00;1.00;;;;;;5062397;28;20908;-54
2023/03/28 01:30:55;;;;;;;3.60;1.20;;;4.00;1.00;;;;;;5060536;28;21013;-52
2023/03/28 01:33:48;;;;;;;3.57;2.10;;;4.10;1.00;;;;;;5071346;28;20546;-54
2023/03/28 01:36:35;;;;;;;5.07;2.40;;;4.20;1.00;;;;;;5063851;28;20442;-54
2023/03/28 01:39:08;;;;;;;3.80;1.90;;;4.30;1.00;;;;;;5070089;28;20469;-56
2023/03/28 01:41:39;;;;;;;3.53;1.90;;;4.30;1.00;;;;;;5065492;28;20446;-55
2023/03/28 01:44:16;;;;;;;4.93;1.53;;;4.40;1.00;;;;;;5066856;28;20956;-55
2023/03/28 01:47:30;;;;;;;8.50;1.87;;;4.30;1.00;;;;;;5069326;28;20969;-54
2023/03/28 01:50:25;;;;;;;6.03;1.80;;;4.30;1.00;;;;;;5061792;28;20743;-55
2023/03/28 01:53:18;;;;;;;4.10;1.50;;;4.30;1.00;;;;;;5066212;28;20461;-53
2023/03/28 01:56:21;;;;;;;1.67;1.10;;;4.30;1.00;;;;;;5062969;28;20962;-54
2023/03/28 01:59:02;;;;;;;3.30;2.00;;;4.30;1.00;;;;;;5017288;28;20796;-55
2023/03/28 02:01:35;;;;;;;7.23;1.70;;;4.20;1.00;;;;;;5058872;28;20450;-53
2023/03/28 02:04:07;;;;;;;4.73;1.80;;;4.20;1.00;;;;;;5067862;28;20437;-54
2023/03/28 02:06:37;;;;;;;1.87;1.67;;;4.10;1.00;;;;;;5059816;28;20473;-53
2023/03/28 02:09:04;;;;;;;4.43;1.50;;;4.20;1.00;;;;;;5071036;28;20914;-54
2023/03/28 02:11:32;;;;;;;4.27;1.70;;;4.10;1.00;;;;;;5064054;28;20438;-54
2023/03/28 02:14:04;;;;;;;7.43;1.70;;;4.20;1.00;;;;;;5065601;28;20923;-56
2023/03/28 02:16:35;;;;;;;5.63;1.87;;;4.20;1.00;;;;;;5063447;28;20519;-53
2023/03/28 02:19:02;;;;;;;7.50;1.80;;;4.20;1.00;;;;;;5083015;28;21158;-55
2023/03/28 02:21:39;;;;;;;4.77;2.03;;;4.20;1.00;;;;;;5061872;28;20909;-54
2023/03/28 02:24:05;;;;;;;4.90;1.93;;;4.20;1.00;;;;;;5068429;28;20457;-56
2023/03/28 02:26:32;;;;;;;6.33;2.00;;;4.20;1.00;;;;;;5064295;28;20459;-55
2023/03/28 02:28:59;;;;;;;5.30;2.20;;;4.10;1.00;;;;;;5074671;28;22514;-55
2023/03/28 02:31:25;;;;;;;4.90;1.70;;;4.20;1.00;;;;;;5065956;28;20482;-54
2023/03/28 02:33:52;;;;;;;4.20;1.90;;;4.20;1.00;;;;;;5071195;28;20446;-55
2023/03/28 02:36:17;;;;;;;4.50;1.40;;;4.10;1.00;;;;;;5066312;28;20515;-56
2023/03/28 02:39:11;;;;;;;3.97;1.90;;;4.10;1.00;;;;;;5073689;28;20837;-55
2023/03/28 02:42:00;;;;;;;3.70;2.27;;;4.10;1.00;;;;;;5070536;28;20277;-55
2023/03/28 02:44:50;;;;;;;6.70;2.20;;;4.20;1.00;;;;;;5059634;28;20453;-53
2023/03/28 02:47:35;;;;;;;2.93;2.03;;;4.20;1.00;;;;;;5065777;28;20450;-56
2023/03/28 02:50:38;;;;;;;6.27;2.10;;;4.10;1.00;;;;;;5062763;28;20981;-55
2023/03/28 02:53:35;;;;;;;8.07;2.33;;;3.90;1.00;;;;;;5059989;28;20450;-54
2023/03/28 02:56:14;;;;;;;4.87;2.80;;;3.80;1.00;;;;;;5066820;28;20442;-53
2023/03/28 02:58:53;;;;;;;4.10;2.47;;;3.60;1.00;;;;;;5064253;28;20453;-55
2023/03/28 03:01:19;;;;;;;4.70;1.93;;;3.50;1.00;;;;;;5066792;28;20488;-54
2023/03/28 03:03:47;;;;;;;8.40;2.23;;;3.50;1.00;;;;;;5064542;28;20499;-54
2023/03/28 03:06:13;;;;;;;5.27;2.20;;;3.50;1.00;;;;;;5064357;28;20445;-54
2023/03/28 03:08:38;;;;;;;4.67;2.63;;;3.50;1.00;;;;;;5065200;28;20973;-57
2023/03/28 03:11:04;;;;;;;4.10;2.23;;;3.50;1.00;;;;;;5065585;28;20449;-54
2023/03/28 03:13:30;;;;;;;4.07;2.60;;;3.50;1.00;;;;;;5064404;28;20245;-54
2023/03/28 03:19:22;;;;;;;4.20;2.63;;;3.50;1.00;;;;;;4969054;28;20230;-54
2023/03/28 03:21:48;;;;;;;12.43;2.40;;;3.60;1.00;;;;;;5063814;28;20574;-53
2023/03/28 03:24:15;;;;;;;6.00;3.50;;;3.60;1.00;;;;;;5059514;28;20267;-54
2023/03/28 03:26:41;;;;;;;6.53;3.33;;;3.80;1.00;;;;;;5063947;28;20782;-54
2023/03/28 03:29:07;;;;;;;17.57;3.67;;;3.80;1.00;;;;;;5062768;28;20476;-54
2023/03/28 03:31:32;;;;;;;3.93;1.93;;;3.80;1.00;;;;;;5069286;28;20476;-55
2023/03/28 03:34:00;;;;;;;5.30;2.20;;;3.60;1.00;;;;;;5063989;28;20446;-53
2023/03/28 03:36:29;;;;;;;2.50;1.67;;;3.20;1.00;;;;;;5067490;28;20322;-56
2023/03/28 03:38:55;;;;;;;3.33;1.23;;;3.00;1.00;;;;;;5063787;28;20951;-54
2023/03/28 03:41:20;;;;;;;2.90;1.03;;;2.70;1.00;;;;;;5064268;28;20524;-54
2023/03/28 03:43:46;;;;;;;2.50;1.10;;;2.70;1.00;;;;;;5066101;28;20188;-55
2023/03/28 03:46:11;;;;;;;2.40;1.33;;;2.70;1.00;;;;;;5060642;28;20181;-54
2023/03/28 03:48:37;;;;;;;2.60;1.20;;;2.80;1.00;;;;;;5068271;28;20207;-55
2023/03/28 03:51:03;;;;;;;2.73;0.97;;;2.70;1.00;;;;;;5064855;28;20188;-54
2023/03/28 03:53:28;;;;;;;1.53;1.00;;;2.80;1.00;;;;;;5065140;28;20234;-54
2023/03/28 03:55:59;;;;;;;3.33;0.90;;;2.80;1.00;;;;;;5063856;28;20552;-54
2023/03/28 03:58:25;;;;;;;2.93;1.40;;;2.70;1.00;;;;;;5068848;28;20601;-53
2023/03/28 04:00:51;;;;;;;2.57;1.30;;;2.70;1.00;;;;;;5062930;28;20470;-54
2023/03/28 04:03:16;;;;;;;4.30;1.03;;;2.80;1.00;;;;;;5069227;28;20195;-53
2023/03/28 04:05:42;;;;;;;3.90;1.50;;;2.70;1.00;;;;;;5072840;28;20193;-55
2023/03/28 04:08:07;;;;;;;4.90;1.87;;;2.80;1.00;;;;;;5067613;28;20245;-55
2023/03/28 04:10:33;;;;;;;1.80;1.20;;;2.80;1.00;;;;;;5066625;28;20216;-56
2023/03/28 04:12:59;;;;;;;3.03;1.50;;;2.80;1.00;;;;;;5067008;28;20225;-54
2023/03/28 04:15:24;;;;;;;1.80;1.27;;;2.70;1.00;;;;;;5065897;28;20213;-53
2023/03/28 04:17:51;;;;;;;2.10;1.03;;;2.70;1.00;;;;;;5061606;28;20261;-54
2023/03/28 04:20:17;;;;;;;1.90;1.10;;;2.80;1.00;;;;;;5069244;28;20605;-55
2023/03/28 04:22:44;;;;;;;1.60;1.03;;;2.90;1.00;;;;;;5064938;28;20485;-56
2023/03/28 04:25:10;;;;;;;1.53;1.27;;;2.90;1.00;;;;;;5075843;28;21576;-55
2023/03/28 04:27:35;;;;;;;6.50;2.07;;;2.90;1.00;;;;;;5061595;28;20457;-55
2023/03/28 04:30:01;;;;;;;1.97;1.47;;;3.10;1.00;;;;;;5076682;28;20222;-55
2023/03/28 04:32:27;;;;;;;1.10;1.10;;;3.10;1.00;;;;;;5069289;28;20235;-56
2023/03/28 04:34:52;;;;;;;3.20;1.47;;;3.30;1.00;;;;;;5067121;28;20586;-55
2023/03/28 04:37:19;;;;;;;2.63;1.20;;;3.20;1.00;;;;;;5067289;28;20192;-54
2023/03/28 04:39:47;;;;;;;5.37;1.40;;;3.20;1.00;;;;;;5067616;28;20607;-54
2023/03/28 04:42:14;;;;;;;4.30;1.30;;;3.30;1.00;;;;;;5067182;28;20447;-55
2023/03/28 04:44:39;;;;;;;1.57;1.20;;;3.20;1.00;;;;;;5068271;28;20446;-55
2023/03/28 04:47:10;;;;;;;3.53;1.50;;;3.20;1.00;;;;;;5067239;28;20450;-55
2023/03/28 04:49:37;;;;;;;4.53;1.10;;;4.20;1.00;;;;;;5062638;28;20618;-55
2023/03/28 04:52:03;;;;;;;3.53;1.03;;;3.30;1.00;;;;;;5066640;28;20475;-55
2023/03/28 04:54:29;;;;;;;1.60;1.07;;;3.30;1.00;;;;;;5069018;28;20488;-53
2023/03/28 04:56:55;;;;;;;2.07;1.30;;;3.20;1.00;;;;;;5075275;28;20444;-56
2023/03/28 04:59:20;;;;;;;2.80;1.20;;;3.20;1.00;;;;;;5062664;28;20218;-54
2023/03/28 05:01:49;;;;;;;6.10;1.30;;;3.20;1.00;;;;;;5072007;28;20302;-52
2023/03/28 05:04:16;;;;;;;5.13;1.57;;;3.20;1.00;;;;;;5066870;28;20858;-55
2023/03/28 05:06:46;;;;;;;6.83;1.60;;;3.30;1.00;;;;;;5066802;28;20433;-55
2023/03/28 05:09:12;;;;;;;1.90;1.70;;;3.20;1.00;;;;;;5067187;28;20446;-54
2023/03/28 05:11:39;;;;;;;4.13;2.10;;;3.30;1.00;;;;;;5071146;28;20453;-53
2023/03/28 05:14:04;;;;;;;2.00;1.43;;;3.30;1.00;;;;;;5062247;28;21184;-53
2023/03/28 05:16:30;;;;;;;4.20;1.50;;;3.40;1.00;;;;;;5064614;28;20477;-57
2023/03/28 05:18:56;;;;;;;3.13;1.10;;;3.20;1.00;;;;;;5071207;28;20316;-53
2023/03/28 05:21:21;;;;;;;3.00;1.23;;;3.20;1.00;;;;;;5067605;28;20207;-55
2023/03/28 05:23:47;;;;;;;3.67;2.00;;;3.20;1.00;;;;;;5066899;28;20188;-54
2023/03/28 05:26:13;;;;;;;4.70;1.53;;;3.10;1.00;;;;;;5066099;28;20192;-53
2023/03/28 05:28:39;;;;;;;3.80;1.70;;;3.00;1.00;;;;;;5067544;28;20188;-54
2023/03/28 05:31:06;;;;;;;4.77;1.47;;;3.00;1.00;;;;;;5073338;28;20672;-54
2023/03/28 05:33:33;;;;;;;4.20;1.50;;;3.10;1.00;;;;;;5067039;28;20511;-53
2023/03/28 05:36:01;;;;;;;1.73;1.10;;;3.10;1.00;;;;;;5063320;28;20497;-55
2023/03/28 05:38:28;;;;;;;5.87;2.30;;;3.20;1.00;;;;;;5061213;28;20830;-54
2023/03/28 05:40:56;;;;;;;4.67;1.43;;;3.30;1.00;;;;;;5065761;28;20464;-56
2023/03/28 05:43:21;;;;;;;1.90;1.17;;;3.30;1.00;;;;;;5064813;28;20446;-53
2023/03/28 05:45:47;;;;;;;3.33;1.77;;;3.30;1.00;;;;;;5068085;28;20442;-54
2023/03/28 05:48:12;;;;;;;2.00;1.60;;;3.40;1.00;;;;;;5059420;28;20198;-54
2023/03/28 05:50:38;;;;;;;3.67;1.53;;;3.50;1.00;;;;;;5066840;28;20614;-55
2023/03/28 05:53:04;;;;;;;2.33;1.40;;;3.50;1.00;;;;;;5064718;28;20215;-53
2023/03/28 05:55:29;;;;;;;3.30;1.73;;;3.50;1.00;;;;;;5069674;28;20282;-54
2023/03/28 05:57:56;;;;;;;2.90;2.13;;;3.50;1.00;;;;;;5068488;28;20184;-54
2023/03/28 06:00:22;;;;;;;5.37;1.70;;;3.50;1.00;;;;;;5084608;28;20206;-55
2023/03/28 06:02:53;;;;;;;3.23;1.63;;;3.40;1.00;;;;;;5071624;28;20445;-53
2023/03/28 06:05:19;;;;;;;2.10;2.00;;;3.40;1.00;;;;;;5066627;28;21066;-54
2023/03/28 06:07:45;;;;;;;8.33;2.40;;;3.40;1.00;;;;;;5070059;28;20529;-56
2023/03/28 06:10:12;;;;;;;5.63;2.43;;;3.40;1.00;;;;;;5072924;28;20513;-54
2023/03/28 06:12:39;;;;;;;3.90;2.37;;;3.40;1.00;;;;;;5072621;28;20296;-52
2023/03/28 06:15:05;;;;;;;2.67;1.87;;;3.40;1.00;;;;;;5065890;28;20798;-55
2023/03/28 06:17:31;;;;;;;2.03;1.50;;;3.40;1.00;;;;;;5068022;28;20450;-56
2023/03/28 06:19:56;;;;;;;2.10;1.90;;;3.40;1.00;;;;;;5062121;28;20535;-55
2023/03/28 06:22:22;;;;;;;4.13;1.67;;;3.50;1.00;;;;;;5059981;28;20189;-56
2023/03/28 06:24:48;;;;;;;6.83;2.10;;;3.40;1.00;;;;;;5064731;28;20195;-57
2023/03/28 06:27:13;;;;;;;1.73;1.43;;;3.40;1.00;;;;;;5071511;28;20192;-53
2023/03/28 06:29:40;;;;;;;2.40;1.47;;;3.50;1.00;;;;;;5072853;28;20195;-55
2023/03/28 06:32:05;;;;;;;2.90;1.90;;;3.30;1.00;;;;;;5069735;28;20811;-53
2023/03/28 06:34:31;;;;;;;2.60;1.87;;;3.10;1.00;;;;;;5068582;28;20200;-55
2023/03/28 06:36:58;;;;;;;5.50;1.90;;;3.10;1.00;;;;;;5065526;28;20275;-53
2023/03/28 06:39:24;;;;;;;3.73;1.57;;;3.20;1.00;;;;;;5062567;28;20200;-56
2023/03/28 06:41:50;;;;;;;4.83;1.50;;;3.20;1.00;;;;;;5060567;28;20447;-54
2023/03/28 06:44:15;;;;;;;3.07;1.67;;;3.40;1.00;;;;;;5062969;28;20195;-52
2023/03/28 06:46:41;;;;;;;7.93;1.73;;;3.50;1.00;;;;;;5061589;28;20676;-53
2023/03/28 06:49:07;;;;;;;2.73;1.80;;;3.60;1.00;;;;;;5067053;28;20198;-55
2023/03/28 06:51:33;;;;;;;5.80;1.40;;;3.80;1.00;;;;;;5064981;28;20558;-53
2023/03/28 06:53:59;;;;;;;1.60;1.47;;;3.70;1.00;;;;;;5059788;28;20241;-52
2023/03/28 06:56:24;;;;;;;3.23;1.90;;;3.70;1.00;;;;;;5065508;28;20455;-53
2023/03/28 06:58:50;;;;;;;2.20;1.60;;;3.70;1.00;;;;;;5063713;28;20217;-55
2023/03/28 07:01:16;;;;;;;3.43;1.57;;;3.60;1.00;;;;;;5064135;28;20645;-56
2023/03/28 07:03:41;;;;;;;3.40;2.43;;;3.60;1.00;;;;;;5060853;28;20188;-57
2023/03/28 07:06:09;;;;;;;4.47;2.23;;;3.80;1.00;;;;;;5064465;28;20195;-56
2023/03/28 07:08:35;;;;;;;2.50;1.87;;;4.00;1.00;;;;;;5062257;28;20200;-55
2023/03/28 07:11:01;;;;;;;4.40;1.90;;;4.20;1.00;;;;;;5063045;28;20539;-55
2023/03/28 07:13:27;;;;;;;3.97;1.97;;;4.30;1.00;;;;;;5056960;28;21134;-57
2023/03/28 07:16:07;;;;;;;1.70;1.40;;;4.30;1.00;;;;;;5049966;28;20263;-53
2023/03/28 07:18:33;;;;;;;2.17;1.80;;;4.20;1.00;;;;;;5055003;28;20243;-53
2023/03/28 07:21:04;;;;;;;4.50;1.77;;;4.30;1.00;;;;;;5061400;28;21044;-55
2023/03/28 07:23:29;;;;;;;2.57;1.50;;;4.40;1.00;;;;;;5079594;28;20931;-52
2023/03/28 07:25:55;;;;;;;5.43;1.80;;;4.40;1.00;;;;;;5052372;28;20438;-53
2023/03/28 07:28:22;;;;;;;2.90;1.80;;;4.50;1.00;;;;;;5065661;28;21805;-53
2023/03/28 07:30:48;;;;;;;5.17;2.20;;;4.40;1.00;;;;;;5067716;28;20281;-55
2023/03/28 07:33:14;;;;;;;3.23;2.00;;;4.50;1.00;;;;;;5066963;28;20491;-55
2023/03/28 07:35:40;;;;;;;6.63;1.80;;;4.40;1.00;;;;;;5066483;28;20188;-53
2023/03/28 07:38:06;;;;;;;7.00;1.60;;;4.60;1.00;;;;;;5065805;28;20455;-53
2023/03/28 07:40:32;;;;;;;4.93;1.47;;;4.30;1.00;;;;;;5063642;28;20947;-58
2023/03/28 07:42:57;;;;;;;3.03;1.80;;;4.30;1.00;;;;;;5059873;28;20446;-55
2023/03/28 07:45:23;;;;;;;4.00;1.90;;;4.50;1.00;;;;;;5061436;28;20627;-54
2023/03/28 07:47:49;;;;;;;2.10;1.57;;;5.00;1.00;;;;;;5059519;28;20180;-54
2023/03/28 07:50:15;;;;;;;3.60;2.07;;;5.30;1.00;;;;;;5071792;28;20202;-54
2023/03/28 07:52:44;;;;;;;5.73;2.10;;;5.50;1.00;;;;;;5064755;28;20244;-57
2023/03/28 07:55:10;;;;;;;3.07;2.10;;;5.20;1.00;;;;;;5065221;28;20473;-55
2023/03/28 07:57:36;;;;;;;2.00;1.40;;;5.00;1.00;;;;;;5067580;28;20449;-55
2023/03/28 08:00:04;;;;;;;4.47;1.30;;;4.90;1.00;;;;;;5068375;28;20462;-55
2023/03/28 08:02:30;;;;;;;2.07;1.57;;;5.00;1.00;;;;;;5068574;28;20195;-55
2023/03/28 08:04:55;;;;;;;5.80;2.60;;;5.00;1.00;;;;;;5068945;28;20428;-54
2023/03/28 08:07:21;;;;;;;2.60;1.40;;;5.00;1.00;;;;;;5068956;28;20176;-55
2023/03/28 08:09:49;;;;;;;1.40;1.30;;;5.00;1.00;;;;;;5068861;28;20226;-54
2023/03/28 08:12:15;;;;;;;1.70;1.30;;;4.80;1.00;;;;;;5069293;28;20483;-54
2023/03/28 08:14:40;;;;;;;1.87;1.77;;;4.90;1.00;;;;;;5067762;28;20453;-55
2023/03/28 08:17:06;;;;;;;2.03;1.67;;;5.00;1.00;;;;;;5071625;28;20180;-54
2023/03/28 08:19:32;;;;;;;3.40;1.03;;;5.30;1.00;;;;;;5071046;28;20271;-55
2023/03/28 08:22:01;;;;;;;2.63;1.63;;;5.50;1.00;;;;;;5067392;28;20207;-55
2023/03/28 08:24:27;;;;;;;4.43;1.20;;;5.80;1.00;;;;;;5062883;28;20199;-55
2023/03/28 08:26:52;;;;;;;7.47;3.30;;;5.50;1.00;;;;;;5067617;28;20441;-55
2023/03/28 08:29:19;;;;;;;3.80;1.60;;;5.30;1.00;;;;;;5069948;28;20191;-53
2023/03/28 08:31:46;;;;;;;1.40;1.30;;;5.50;1.00;;;;;;5078662;28;20188;-55
2023/03/28 08:34:12;;;;;;;1.80;1.60;;;5.30;1.00;;;;;;5067137;28;21161;-55
2023/03/28 08:36:37;;;;;;;1.77;1.13;;;5.10;1.00;;;;;;5068722;28;20521;-53
2023/03/28 08:39:04;;;;;;;2.50;1.70;;;5.00;1.00;;;;;;5064845;28;20195;-54
2023/03/28 08:41:39;;;;;;;1.77;1.20;;;5.00;1.00;;;;;;5066496;28;20208;-55
2023/03/28 08:44:31;;;;;;;1.70;1.17;;;5.10;1.00;;;;;;5063676;28;20504;-53
2023/03/28 08:47:03;;;;;;;2.13;1.30;;;5.30;1.00;;;;;;5058340;28;20442;-52
2023/03/28 08:49:37;;;;;;;2.27;1.30;;;5.60;99.90;;;;;;5066503;28;21145;-53
2023/03/28 08:52:04;;;;;;;3.30;1.00;;;5.70;99.90;;;;;;5078022;28;20456;-52
2023/03/28 08:54:33;;;;;;;2.90;1.03;;;5.90;99.90;;;;;;5068187;28;20474;-56
2023/03/28 08:57:02;;;;;;;1.67;1.30;;;6.20;99.90;;;;;;5066631;28;20472;-54
2023/03/28 08:59:53;;;;;;;2.60;1.83;;;6.10;99.90;;;;;;5067566;28;21215;-56
2023/03/28 09:02:26;;;;;;;1.73;1.27;;;5.90;99.90;;;;;;5064670;28;20450;-54
2023/03/28 09:04:53;;;;;;;2.07;1.40;;;5.60;99.90;;;;;;5074267;28;20445;-55
2023/03/28 09:07:43;;;;;;;3.07;2.03;;;5.30;99.90;;;;;;5066824;28;20442;-54
2023/03/28 09:10:38;;;;;;;4.60;1.30;;;5.00;99.90;;;;;;5067597;28;20559;-55
2023/03/28 09:13:07;;;;;;;1.50;1.30;;;5.40;99.90;;;;;;5068319;28;20499;-57
2023/03/28 09:15:44;;;;;;;4.30;1.17;;;5.50;99.90;;;;;;5068541;28;20448;-53
2023/03/28 09:18:41;;;;;;;1.57;1.47;;;5.80;99.90;;;;;;5066136;28;20449;-56
2023/03/28 09:21:20;;;;;;;6.23;1.23;;;6.10;99.90;;;;;;5066802;28;21051;-54
2023/03/28 09:23:59;;;;;;;1.80;0.60;;;6.70;99.90;;;;;;5070100;28;20464;-55
2023/03/28 09:26:34;;;;;;;2.30;1.10;;;6.10;99.90;;;;;;5066527;28;20967;-53
2023/03/28 09:29:09;;;;;;;1.00;0.83;;;5.90;99.90;;;;;;5069717;28;20495;-55
2023/03/28 09:31:41;;;;;;;8.60;2.20;;;6.00;99.90;;;;;;5071903;28;20811;-55
2023/03/28 09:34:17;;;;;;;1.37;1.17;;;6.30;99.90;;;;;;5071753;28;20484;-53
2023/03/28 09:36:46;;;;;;;1.10;0.80;;;6.20;99.90;;;;;;5066541;28;20441;-54
2023/03/28 09:39:23;;;;;;;1.77;1.07;;;6.20;99.90;;;;;;5067558;28;20451;-53
2023/03/28 09:41:59;;;;;;;2.67;0.90;;;6.00;99.90;;;;;;5066859;28;20442;-54
2023/03/28 09:44:36;;;;;;;1.77;1.17;;;6.30;99.90;;;;;;5067965;28;20441;-56
2023/03/28 09:47:07;;;;;;;0.77;0.73;;;6.70;99.90;;;;;;5080570;28;20487;-54
2023/03/28 09:49:33;;;;;;;0.97;0.83;;;7.00;99.90;;;;;;5068015;28;20942;-54
2023/03/28 09:51:58;;;;;;;3.63;0.80;;;6.90;99.90;;;;;;5071098;28;20484;-56
2023/03/28 09:54:29;;;;;;;1.53;1.13;;;7.00;99.90;;;;;;5065804;28;20234;-56
2023/03/28 09:57:03;;;;;;;0.60;0.60;;;6.40;99.90;;;;;;5067870;28;20198;-55
2023/03/28 09:59:31;;;;;;;1.00;0.50;;;6.30;99.90;;;;;;5069849;28;22209;-57
2023/03/28 10:02:01;;;;;;;1.67;0.80;;;6.70;99.90;;;;;;5069124;28;20528;-54
2023/03/28 10:04:26;;;;;;;1.27;0.80;;;6.90;99.90;;;;;;5065782;28;20458;-54
2023/03/28 10:06:53;;;;;;;1.30;0.60;;;6.90;99.90;;;;;;5071031;28;20498;-55
2023/03/28 10:09:22;;;;;;;1.20;0.80;;;6.60;99.90;;;;;;5069252;28;20186;-56
2023/03/28 10:11:54;;;;;;;0.83;0.60;;;6.60;99.90;;;;;;5068084;28;20450;-55
2023/03/28 10:14:32;;;;;;;2.00;0.80;;;7.10;99.90;;;;;;5065842;28;20846;-54
2023/03/28 10:17:04;;;;;;;0.60;0.60;;;7.40;99.90;;;;;;5068840;28;20446;-54
2023/03/28 10:19:36;;;;;;;3.67;1.00;;;7.50;99.90;;;;;;5063508;28;20450;-53
2023/03/28 10:22:11;;;;;;;1.43;0.97;;;7.30;99.90;;;;;;5071140;28;20768;-55
2023/03/28 10:24:38;;;;;;;1.53;0.83;;;7.30;99.90;;;;;;5066955;28;20468;-55
2023/03/28 10:27:13;;;;;;;1.83;0.97;;;7.40;99.90;;;;;;5068889;28;21029;-56
2023/03/28 10:29:39;;;;;;;0.57;0.57;;;7.30;99.90;;;;;;5067771;28;20476;-56
2023/03/28 10:32:06;;;;;;;1.03;0.70;;;7.20;99.90;;;;;;5072720;28;20780;-54
2023/03/28 10:34:33;;;;;;;0.60;0.50;;;7.20;99.90;;;;;;5069328;28;20458;-53
2023/03/28 10:36:59;;;;;;;3.40;0.80;;;6.90;99.90;;;;;;5063014;28;20474;-53
2023/03/28 10:39:31;;;;;;;2.10;0.70;;;6.90;99.90;;;;;;5073886;28;20901;-55
2023/03/28 10:42:01;;;;;;;0.57;0.57;;;7.00;99.90;;;;;;5067357;28;20416;-54
2023/03/28 10:44:31;;;;;;;1.80;0.67;;;7.10;99.90;;;;;;5066519;28;20450;-53
2023/03/28 10:47:01;;;;;;;1.17;0.60;;;7.20;99.90;;;;;;5068280;28;20453;-55
2023/03/28 10:49:30;;;;;;;1.40;1.00;;;6.90;99.90;;;;;;5075411;28;20443;-55
2023/03/28 10:51:56;;;;;;;0.50;0.50;;;6.90;99.90;;;;;;5070466;28;20450;-55
2023/03/28 10:54:50;;;;;;;1.63;0.60;;;7.00;99.90;;;;;;5068565;28;20470;-55
2023/03/28 10:57:26;;;;;;;2.10;0.67;;;7.40;99.90;;;;;;5070087;28;20184;-53
2023/03/28 11:00:11;;;;;;;0.60;0.47;;;7.50;99.90;;;;;;5083641;28;20459;-54
2023/03/28 11:03:14;;;;;;;2.00;0.50;;;7.40;99.90;;;;;;5066929;28;20442;-53
2023/03/28 11:05:54;;;;;;;1.17;0.43;;;7.40;99.90;;;;;;5067261;28;20457;-53
2023/03/28 11:08:34;;;;;;;0.70;0.70;;;7.60;99.90;;;;;;5074939;28;20468;-55
2023/03/28 11:11:09;;;;;;;1.23;0.67;;;7.70;99.90;;;;;;5068587;28;20437;-53
2023/03/28 11:13:54;;;;;;;0.43;0.43;;;7.80;99.90;;;;;;5069336;28;20783;-52
2023/03/28 11:16:34;;;;;;;1.50;0.70;;;7.60;99.90;;;;;;5066874;28;21204;-51
2023/03/28 11:19:24;;;;;;;0.77;0.60;;;7.50;99.90;;;;;;5070044;28;20430;-54
2023/03/28 11:22:16;;;;;;;2.93;0.53;;;7.70;99.90;;;;;;5058235;28;20754;-55
2023/03/28 11:24:42;;;;;;;5.20;2.73;;;7.70;99.90;;;;;;5085799;28;20425;-56
2023/03/28 11:27:13;;;;;;;1.70;0.90;;;7.70;99.90;;;;;;5089683;28;20850;-54
2023/03/28 11:30:05;;;;;;;0.83;0.60;;;8.10;99.90;;;;;;5067183;28;20275;-56
2023/03/28 11:33:10;;;;;;;1.60;0.87;;;8.10;99.90;;;;;;5066866;28;20791;-53
2023/03/28 11:35:42;;;;;;;1.20;0.50;;;7.70;99.90;;;;;;5047857;28;20453;-53
2023/03/28 11:38:37;;;;;;;1.57;1.10;;;7.70;99.90;;;;;;5067671;28;20849;-53
2023/03/28 11:41:13;;;;;;;1.50;1.10;;;7.70;99.90;;;;;;5064229;28;20458;-55
2023/03/28 11:43:54;;;;;;;1.90;1.10;;;7.80;99.90;;;;;;5067453;28;20439;-54
2023/03/28 11:46:28;;;;;;;1.03;0.70;;;7.80;99.90;;;;;;5076854;28;20517;-55
2023/03/28 11:48:57;;;;;;;1.10;0.93;;;7.70;99.90;;;;;;5089704;28;20532;-55
2023/03/28 11:51:40;;;;;;;2.20;0.70;;;7.70;99.90;;;;;;5067183;28;20950;-56
2023/03/28 11:54:31;;;;;;;2.37;0.70;;;7.80;99.90;;;;;;5066898;28;20501;-54
2023/03/28 11:57:11;;;;;;;0.83;0.83;;;8.10;99.90;;;;;;5059893;28;20492;-56
2023/03/28 11:59:47;;;;;;;0.90;0.80;;;8.20;99.90;;;;;;5069198;28;20844;-55
2023/03/28 12:02:36;;;;;;;1.53;0.90;;;8.60;99.90;;;;;;5062845;28;20791;-54
2023/03/28 12:05:05;;;;;;;2.87;1.00;;;8.50;99.90;;;;;;5066547;28;20433;-53
2023/03/28 12:07:37;;;;;;;1.03;0.93;;;8.50;99.90;;;;;;5069300;28;20433;-54
2023/03/28 12:10:26;;;;;;;1.80;0.90;;;8.70;99.90;;;;;;5066450;28;20964;-55
2023/03/28 12:13:10;;;;;;;2.00;0.83;;;8.10;99.90;;;;;;5068974;28;20438;-53
2023/03/28 12:15:50;;;;;;;1.33;0.70;;;8.10;99.90;;;;;;5066255;28;20442;-55
2023/03/28 12:18:45;;;;;;;1.27;1.10;;;8.40;99.90;;;;;;5078101;28;20444;-55
2023/03/28 12:21:35;;;;;;;0.80;0.80;;;8.60;99.90;;;;;;5066273;28;20469;-55
2023/03/28 12:24:12;;;;;;;2.20;0.90;;;8.70;99.90;;;;;;5066604;28;20820;-56
2023/03/28 12:27:00;;;;;;;1.87;1.03;;;8.60;99.90;;;;;;5068507;28;20446;-56
2023/03/28 12:29:49;;;;;;;4.33;0.90;;;8.70;99.90;;;;;;5087962;28;20425;-54
2023/03/28 12:32:23;;;;;;;4.20;1.10;;;9.10;99.90;;;;;;5061313;28;20535;-54
2023/03/28 12:34:58;;;;;;;1.73;1.40;;;9.40;99.90;;;;;;5067853;28;21004;-56
2023/03/28 12:38:08;;;;;;;2.67;1.40;;;9.40;99.90;;;;;;5071494;28;21100;-54
2023/03/28 12:40:56;;;;;;;1.10;1.00;;;9.50;99.90;;;;;;5058805;28;20610;-53
2023/03/28 12:43:45;;;;;;;2.37;1.07;;;9.40;99.90;;;;;;5068908;28;20449;-55
2023/03/28 12:46:14;;;;;;;2.00;1.33;;;9.30;99.90;;;;;;5069760;28;20460;-55
2023/03/28 12:48:46;;;;;;;5.17;1.20;;;9.00;99.90;;;;;;5078770;28;20438;-55
2023/03/28 12:51:17;;;;;;;1.00;0.93;;;9.40;99.90;;;;;;5076116;28;20444;-54
2023/03/28 12:53:58;;;;;;;5.20;1.23;;;9.60;99.90;;;;;;5070903;28;20505;-54
2023/03/28 12:56:24;;;;;;;2.30;1.27;;;9.90;99.90;;;;;;5072168;28;20400;-54
2023/03/28 12:58:51;;;;;;;3.67;1.50;;;10.20;99.90;;;;;;5071304;28;20442;-53
2023/03/28 13:01:46;;;;;;;1.67;1.07;;;10.40;99.90;;;;;;5072076;28;20473;-55
2023/03/28 13:04:28;;;;;;;1.77;1.00;;;10.50;99.90;;;;;;5066489;28;20448;-55
2023/03/28 13:07:02;;;;;;;1.40;1.00;;;10.50;99.90;;;;;;5069646;28;20441;-53
2023/03/28 13:09:50;;;;;;;1.27;0.97;;;10.30;99.90;;;;;;5069573;28;20445;-55
2023/03/28 13:12:45;;;;;;;2.50;1.23;;;10.30;99.90;;;;;;5069713;28;20449;-54
2023/03/28 13:15:14;;;;;;;1.33;1.00;;;10.30;99.90;;;;;;5072109;28;20449;-55
2023/03/28 13:18:20;;;;;;;2.27;1.30;;;10.20;99.90;;;;;;5066042;28;21305;-53
2023/03/28 13:20:50;;;;;;;1.97;1.37;;;10.10;99.90;;;;;;5007801;28;20635;-54
2023/03/28 13:23:16;;;;;;;2.53;0.93;;;10.20;99.90;;;;;;5073360;28;20457;-55
2023/03/28 13:26:04;;;;;;;2.50;0.90;;;9.80;99.90;;;;;;5072982;28;20972;-55
2023/03/28 13:28:42;;;;;;;1.53;1.03;;;9.70;99.90;;;;;;5062453;28;21005;-54
2023/03/28 13:31:23;;;;;;;1.97;1.27;;;9.80;99.90;;;;;;5065088;28;20971;-55
2023/03/28 13:33:53;;;;;;;1.80;1.17;;;9.90;99.90;;;;;;5066118;28;20579;-54